createdAt,value
2018-09-11T00:00:48.107Z,12.70
2018-09-11T00:01:48.264Z,11.20
2018-09-11T00:02:48.112Z,11.90
2018-09-11T00:03:48.096Z,9.90
2018-09-11T00:04:48.099Z,10.10
2018-09-11T00:05:48.175Z,10.20
2018-09-11T00:06:48.355Z,11.70
2018-09-11T00:07:48.155Z,12.00
2018-09-11T00:08:48.165Z,10.40
2018-09-11T00:09:48.183Z,10.30
2018-09-11T00:10:48.191Z,12.80
2018-09-11T00:11:48.317Z,11.70
2018-09-11T00:12:48.240Z,10.60
2018-09-11T00:13:48.220Z,10.30
2018-09-11T00:14:48.226Z,12.40
2018-09-11T00:15:48.250Z,12.50
2018-09-11T00:16:48.461Z,12.00
2018-09-11T00:17:48.303Z,9.40
2018-09-11T00:18:48.291Z,9.30
2018-09-11T00:19:48.284Z,11.10
2018-09-11T00:20:48.308Z,9.70
2018-09-11T00:21:48.539Z,8.20
2018-09-11T00:22:48.346Z,7.20
2018-09-11T00:23:48.358Z,8.40
2018-09-11T00:24:48.380Z,7.90
2018-09-11T00:25:48.374Z,9.00
2018-09-11T00:26:48.489Z,11.40
2018-09-11T00:27:48.402Z,10.50
2018-09-11T00:28:48.427Z,10.90
2018-09-11T00:29:48.446Z,9.90
2018-09-11T00:30:48.488Z,10.10
2018-09-11T00:31:48.607Z,8.40
2018-09-11T00:32:48.457Z,6.80
2018-09-11T00:33:48.486Z,10.50
2018-09-11T00:34:48.491Z,10.80
2018-09-11T00:35:48.526Z,8.50
2018-09-11T00:36:48.508Z,11.70
2018-09-11T00:37:48.688Z,10.20
2018-09-11T00:38:48.546Z,10.80
2018-09-11T00:39:48.548Z,12.20
2018-09-11T00:40:48.559Z,9.80
2018-09-11T00:41:48.586Z,10.80
2018-09-11T00:42:48.743Z,10.50
2018-09-11T00:43:48.620Z,12.00
2018-09-11T00:44:48.630Z,12.10
2018-09-11T00:45:48.649Z,10.10
2018-09-11T00:46:48.655Z,10.10
2018-09-11T00:47:48.827Z,14.20
2018-09-11T00:48:48.681Z,10.70
2018-09-11T00:49:48.678Z,8.40
2018-09-11T00:50:48.686Z,11.40
2018-09-11T00:51:48.783Z,10.90
2018-09-11T00:52:48.921Z,11.30
2018-09-11T00:53:48.753Z,12.70
2018-09-11T00:54:48.768Z,10.00
2018-09-11T00:55:48.764Z,9.80
2018-09-11T00:56:48.787Z,10.20
2018-09-11T00:57:48.939Z,9.20
2018-09-11T00:58:48.799Z,6.00
2018-09-11T00:59:48.820Z,7.50
2018-09-11T01:00:48.837Z,8.00
2018-09-11T01:01:48.840Z,9.60
2018-09-11T01:02:48.999Z,9.20
2018-09-11T01:03:48.850Z,6.80
2018-09-11T01:04:48.917Z,7.50
2018-09-11T01:05:49.013Z,9.30
2018-09-11T01:06:48.906Z,7.90
2018-09-11T01:07:49.038Z,7.40
2018-09-11T01:08:48.945Z,7.60
2018-09-11T01:09:49.013Z,7.40
2018-09-11T01:10:48.958Z,9.70
2018-09-11T01:11:48.996Z,7.30
2018-09-11T01:12:49.184Z,11.90
2018-09-11T01:13:48.988Z,8.30
2018-09-11T01:14:48.990Z,8.30
2018-09-11T01:15:49.007Z,8.80
2018-09-11T01:16:49.033Z,9.10
2018-09-11T01:17:49.208Z,10.00
2018-09-11T01:18:49.056Z,9.20
2018-09-11T01:19:49.058Z,12.20
2018-09-11T01:20:49.092Z,8.70
2018-09-11T01:21:49.130Z,10.00
2018-09-11T01:22:49.256Z,9.70
2018-09-11T01:23:49.116Z,8.30
2018-09-11T01:24:49.121Z,10.90
2018-09-11T01:25:49.146Z,8.80
2018-09-11T01:26:49.146Z,8.90
2018-09-11T01:27:49.316Z,9.90
2018-09-11T01:28:49.187Z,9.60
2018-09-11T01:29:49.187Z,11.10
2018-09-11T01:30:49.187Z,9.30
2018-09-11T01:31:49.225Z,7.40
2018-09-11T01:32:49.423Z,7.90
2018-09-11T01:33:49.254Z,13.30
2018-09-11T01:34:49.273Z,9.60
2018-09-11T01:35:49.272Z,7.10
2018-09-11T01:36:49.283Z,8.60
2018-09-11T01:37:49.446Z,8.70
2018-09-11T01:38:49.292Z,8.00
2018-09-11T01:39:49.324Z,10.40
2018-09-11T01:40:49.331Z,10.70
2018-09-11T01:41:49.335Z,11.20
2018-09-11T01:42:49.455Z,9.20
2018-09-11T01:43:49.358Z,9.20
2018-09-11T01:44:49.363Z,10.10
2018-09-11T01:45:49.397Z,8.70
2018-09-11T01:46:49.450Z,9.60
2018-09-11T01:47:49.617Z,8.60
2018-09-11T01:48:49.424Z,8.40
2018-09-11T01:49:49.432Z,9.00
2018-09-11T01:50:49.462Z,8.50
2018-09-11T01:51:49.484Z,8.80
2018-09-11T01:52:49.671Z,9.90
2018-09-11T01:53:49.484Z,10.20
2018-09-11T01:54:49.506Z,8.00
2018-09-11T01:55:49.500Z,10.10
2018-09-11T01:56:49.505Z,12.70
2018-09-11T01:57:49.744Z,9.20
2018-09-11T01:58:49.531Z,8.10
2018-09-11T01:59:49.550Z,10.80
2018-09-11T02:00:49.615Z,12.10
2018-09-11T02:01:49.571Z,9.20
2018-09-11T02:02:49.741Z,8.10
2018-09-11T02:03:49.593Z,14.30
2018-09-11T02:04:49.628Z,9.90
2018-09-11T02:05:49.647Z,12.00
2018-09-11T02:06:49.643Z,12.50
2018-09-11T02:07:49.761Z,7.70
2018-09-11T02:08:49.671Z,7.10
2018-09-11T02:09:49.666Z,8.30
2018-09-11T02:10:49.697Z,8.30
2018-09-11T02:11:49.694Z,9.90
2018-09-11T02:12:49.926Z,7.90
2018-09-11T02:13:49.715Z,10.30
2018-09-11T02:14:49.741Z,15.70
2018-09-11T02:15:49.764Z,8.60
2018-09-11T02:16:49.776Z,8.70
2018-09-11T02:17:49.784Z,8.70
2018-09-11T02:18:49.923Z,6.60
2018-09-11T02:19:49.804Z,6.80
2018-09-11T02:20:49.812Z,5.30
2018-09-11T02:21:49.847Z,7.10
2018-09-11T02:22:49.830Z,7.40
2018-09-11T02:23:49.872Z,7.70
2018-09-11T02:24:50.003Z,9.20
2018-09-11T02:25:49.881Z,6.10
2018-09-11T02:26:49.887Z,8.10
2018-09-11T02:27:49.890Z,8.60
2018-09-11T02:28:49.918Z,8.20
2018-09-11T02:29:50.243Z,7.00
2018-09-11T02:30:49.926Z,7.30
2018-09-11T02:31:49.939Z,6.20
2018-09-11T02:32:49.971Z,8.70
2018-09-11T02:33:49.966Z,7.10
2018-09-11T02:34:50.303Z,6.60
2018-09-11T02:35:50.092Z,7.40
2018-09-11T02:36:50.002Z,5.50
2018-09-11T02:37:50.030Z,7.40
2018-09-11T02:38:50.023Z,8.90
2018-09-11T02:39:50.243Z,9.00
2018-09-11T02:40:50.062Z,7.70
2018-09-11T02:41:50.093Z,8.10
2018-09-11T02:42:50.100Z,5.80
2018-09-11T02:43:50.101Z,7.90
2018-09-11T02:44:50.254Z,6.50
2018-09-11T02:45:50.125Z,8.20
2018-09-11T02:46:50.127Z,7.20
2018-09-11T02:47:50.143Z,5.70
2018-09-11T02:48:50.162Z,8.20
2018-09-11T02:49:50.279Z,5.60
2018-09-11T02:50:50.179Z,8.10
2018-09-11T02:51:50.205Z,6.40
2018-09-11T02:52:50.203Z,6.90
2018-09-11T02:53:50.226Z,6.60
2018-09-11T02:54:50.322Z,8.60
2018-09-11T02:55:50.230Z,10.80
2018-09-11T02:56:50.261Z,10.30
2018-09-11T02:57:50.321Z,7.80
2018-09-11T02:58:50.358Z,7.00
2018-09-11T02:59:50.352Z,7.10
2018-09-11T03:00:50.309Z,7.60
2018-09-11T03:01:50.336Z,6.10
2018-09-11T03:02:50.442Z,8.20
2018-09-11T03:03:50.354Z,9.80
2018-09-11T03:04:50.362Z,8.10
2018-09-11T03:05:50.379Z,10.50
2018-09-11T03:06:50.378Z,9.30
2018-09-11T03:07:50.492Z,8.50
2018-09-11T03:08:50.423Z,7.50
2018-09-11T03:09:50.448Z,8.50
2018-09-11T03:10:50.428Z,11.50
2018-09-11T03:11:50.605Z,8.30
2018-09-11T03:12:50.442Z,10.80
2018-09-11T03:13:50.480Z,8.60
2018-09-11T03:14:50.466Z,10.00
2018-09-11T03:15:50.489Z,10.20
2018-09-11T03:16:50.640Z,10.80
2018-09-11T03:17:50.518Z,11.40
2018-09-11T03:18:50.559Z,11.70
2018-09-11T03:19:50.540Z,10.00
2018-09-11T03:20:50.562Z,13.30
2018-09-11T03:21:50.624Z,12.50
2018-09-11T03:22:50.577Z,13.10
2018-09-11T03:23:50.593Z,12.00
2018-09-11T03:24:50.609Z,11.80
2018-09-11T03:25:50.757Z,13.60
2018-09-11T03:26:50.634Z,13.80
2018-09-11T03:27:50.639Z,15.10
2018-09-11T03:28:50.642Z,14.30
2018-09-11T03:29:50.661Z,15.30
2018-09-11T03:30:50.682Z,16.80
2018-09-11T03:31:50.724Z,14.40
2018-09-11T03:32:50.704Z,15.40
2018-09-11T03:33:50.761Z,19.80
2018-09-11T03:34:50.884Z,19.60
2018-09-11T03:35:50.781Z,21.20
2018-09-11T03:36:50.745Z,21.50
2018-09-11T03:37:50.756Z,19.40
2018-09-11T03:38:50.759Z,21.30
2018-09-11T03:39:50.897Z,21.00
2018-09-11T03:40:50.804Z,21.20
2018-09-11T03:41:50.806Z,22.70
2018-09-11T03:42:50.809Z,23.10
2018-09-11T03:43:50.826Z,23.30
2018-09-11T03:44:50.998Z,24.10
2018-09-11T03:45:50.874Z,23.80
2018-09-11T03:46:50.916Z,24.20
2018-09-11T03:47:50.893Z,24.70
2018-09-11T03:48:51.016Z,25.40
2018-09-11T03:49:51.043Z,26.90
2018-09-11T03:50:50.934Z,25.50
2018-09-11T03:51:50.933Z,24.40
2018-09-11T03:52:50.938Z,24.70
2018-09-11T03:53:50.944Z,23.80
2018-09-11T03:54:51.094Z,25.00
2018-09-11T03:55:50.997Z,23.60
2018-09-11T03:56:51.010Z,24.10
2018-09-11T03:57:51.005Z,23.80
2018-09-11T03:58:51.023Z,23.80
2018-09-11T03:59:51.185Z,23.20
2018-09-11T04:00:51.084Z,23.80
2018-09-11T04:01:51.046Z,23.70
2018-09-11T04:02:51.090Z,23.80
2018-09-11T04:03:51.087Z,22.60
2018-09-11T04:04:51.202Z,23.10
2018-09-11T04:05:51.112Z,23.10
2018-09-11T04:06:51.119Z,23.00
2018-09-11T04:07:51.153Z,21.30
2018-09-11T04:08:51.129Z,21.70
2018-09-11T04:09:51.255Z,21.10
2018-09-11T04:10:51.154Z,22.40
2018-09-11T04:11:51.202Z,21.40
2018-09-11T04:12:51.189Z,22.30
2018-09-11T04:13:51.212Z,21.50
2018-09-11T04:14:51.309Z,20.70
2018-09-11T04:15:51.233Z,20.80
2018-09-11T04:16:51.250Z,20.20
2018-09-11T04:17:51.263Z,20.70
2018-09-11T04:18:51.253Z,20.00
2018-09-11T04:19:51.366Z,21.00
2018-09-11T04:20:51.289Z,20.50
2018-09-11T04:21:51.290Z,19.70
2018-09-11T04:22:51.319Z,19.80
2018-09-11T04:23:51.330Z,18.70
2018-09-11T04:24:51.444Z,19.40
2018-09-11T04:25:51.370Z,21.10
2018-09-11T04:26:51.376Z,20.20
2018-09-11T04:27:51.418Z,19.90
2018-09-11T04:28:51.389Z,19.30
2018-09-11T04:29:51.503Z,18.40
2018-09-11T04:30:51.416Z,19.60
2018-09-11T04:31:51.440Z,17.60
2018-09-11T04:32:51.433Z,18.90
2018-09-11T04:33:51.464Z,17.70
2018-09-11T04:34:51.560Z,18.70
2018-09-11T04:35:51.466Z,18.70
2018-09-11T04:36:51.491Z,19.10
2018-09-11T04:37:51.503Z,20.10
2018-09-11T04:38:51.499Z,19.90
2018-09-11T04:39:51.611Z,20.50
2018-09-11T04:40:51.554Z,19.80
2018-09-11T04:41:51.564Z,20.40
2018-09-11T04:42:51.612Z,20.30
2018-09-11T04:43:51.588Z,20.80
2018-09-11T04:44:51.789Z,21.20
2018-09-11T04:45:51.612Z,20.00
2018-09-11T04:46:51.603Z,21.30
2018-09-11T04:47:51.669Z,21.00
2018-09-11T04:48:51.636Z,22.10
2018-09-11T04:49:51.812Z,21.70
2018-09-11T04:50:51.660Z,22.70
2018-09-11T04:51:51.673Z,22.50
2018-09-11T04:52:51.677Z,22.50
2018-09-11T04:53:51.703Z,23.10
2018-09-11T04:54:51.863Z,23.40
2018-09-11T04:55:51.707Z,22.80
2018-09-11T04:56:51.718Z,23.40
2018-09-11T04:57:51.730Z,22.10
2018-09-11T04:58:51.759Z,23.50
2018-09-11T04:59:51.905Z,23.60
2018-09-11T05:00:51.796Z,21.90
2018-09-11T05:01:51.787Z,23.00
2018-09-11T05:02:51.792Z,24.10
2018-09-11T05:03:51.832Z,24.30
2018-09-11T05:04:51.994Z,22.50
2018-09-11T05:05:51.846Z,24.00
2018-09-11T05:06:51.860Z,23.50
2018-09-11T05:07:51.871Z,24.20
2018-09-11T05:08:51.897Z,23.20
2018-09-11T05:09:51.930Z,25.00
2018-09-11T05:10:51.904Z,25.10
2018-09-11T05:11:51.928Z,24.80
2018-09-11T05:12:52.022Z,24.90
2018-09-11T05:13:51.941Z,25.20
2018-09-11T05:14:51.948Z,25.40
2018-09-11T05:15:51.943Z,26.90
2018-09-11T05:16:51.968Z,26.00
2018-09-11T05:17:52.028Z,26.40
2018-09-11T05:18:52.081Z,25.60
2018-09-11T05:19:52.019Z,24.70
2018-09-11T05:20:52.032Z,25.40
2018-09-11T05:21:52.017Z,24.70
2018-09-11T05:22:52.038Z,24.50
2018-09-11T05:23:52.162Z,24.80
2018-09-11T05:24:52.088Z,23.90
2018-09-11T05:25:52.076Z,23.20
2018-09-11T05:26:52.095Z,23.50
2018-09-11T05:27:52.109Z,26.20
2018-09-11T05:28:52.226Z,25.00
2018-09-11T05:29:52.133Z,25.70
2018-09-11T05:30:52.132Z,25.30
2018-09-11T05:31:52.165Z,25.00
2018-09-11T05:32:52.159Z,25.00
2018-09-11T05:33:52.284Z,25.90
2018-09-11T05:34:52.180Z,27.00
2018-09-11T05:35:52.194Z,27.10
2018-09-11T05:36:52.222Z,24.30
2018-09-11T05:37:52.249Z,23.30
2018-09-11T05:38:52.353Z,23.90
2018-09-11T05:39:52.248Z,24.90
2018-09-11T05:40:52.274Z,22.60
2018-09-11T05:41:52.288Z,23.70
2018-09-11T05:42:52.287Z,24.00
2018-09-11T05:43:52.462Z,25.50
2018-09-11T05:44:52.355Z,25.50
2018-09-11T05:45:52.333Z,24.30
2018-09-11T05:46:52.349Z,23.10
2018-09-11T05:47:52.368Z,24.30
2018-09-11T05:48:52.559Z,26.30
2018-09-11T05:49:52.371Z,27.20
2018-09-11T05:50:52.381Z,25.70
2018-09-11T05:51:52.421Z,26.30
2018-09-11T05:52:52.409Z,26.70
2018-09-11T05:53:52.566Z,27.10
2018-09-11T05:54:52.440Z,25.50
2018-09-11T05:55:52.445Z,25.60
2018-09-11T05:56:52.443Z,26.10
2018-09-11T05:57:52.471Z,21.50
2018-09-11T05:58:52.622Z,24.30
2018-09-11T05:59:52.517Z,27.10
2018-09-11T06:00:52.501Z,23.80
2018-09-11T06:01:52.511Z,22.90
2018-09-11T06:02:52.523Z,24.50
2018-09-11T06:03:52.754Z,27.10
2018-09-11T06:04:52.561Z,25.90
2018-09-11T06:05:52.569Z,24.50
2018-09-11T06:06:52.585Z,23.30
2018-09-11T06:07:52.638Z,22.80
2018-09-11T06:08:52.813Z,21.80
2018-09-11T06:09:52.634Z,22.20
2018-09-11T06:10:52.627Z,22.30
2018-09-11T06:11:52.653Z,21.70
2018-09-11T06:12:52.653Z,21.30
2018-09-11T06:13:52.802Z,23.40
2018-09-11T06:14:52.683Z,20.00
2018-09-11T06:15:52.698Z,20.40
2018-09-11T06:16:52.699Z,21.40
2018-09-11T06:17:52.724Z,20.30
2018-09-11T06:18:52.839Z,18.40
2018-09-11T06:19:52.747Z,20.20
2018-09-11T06:20:52.765Z,18.70
2018-09-11T06:21:52.773Z,20.30
2018-09-11T06:22:52.796Z,20.50
2018-09-11T06:23:52.825Z,20.20
2018-09-11T06:24:52.896Z,19.70
2018-09-11T06:25:52.864Z,20.90
2018-09-11T06:26:52.820Z,21.10
2018-09-11T06:27:52.846Z,21.80
2018-09-11T06:28:52.844Z,22.10
2018-09-11T06:29:52.894Z,20.80
2018-09-11T06:30:52.891Z,21.90
2018-09-11T06:31:53.049Z,21.40
2018-09-11T06:32:52.912Z,22.40
2018-09-11T06:33:52.902Z,22.40
2018-09-11T06:34:52.907Z,21.40
2018-09-11T06:35:52.923Z,23.30
2018-09-11T06:36:53.097Z,23.70
2018-09-11T06:37:52.938Z,24.80
2018-09-11T06:38:52.975Z,25.00
2018-09-11T06:39:52.986Z,25.60
2018-09-11T06:40:52.973Z,26.50
2018-09-11T06:41:53.042Z,26.00
2018-09-11T06:42:53.218Z,30.40
2018-09-11T06:43:53.028Z,25.30
2018-09-11T06:44:53.038Z,26.50
2018-09-11T06:45:53.038Z,25.60
2018-09-11T06:46:53.058Z,25.00
2018-09-11T06:47:53.239Z,23.30
2018-09-11T06:48:53.094Z,23.20
2018-09-11T06:49:53.094Z,24.10
2018-09-11T06:50:53.127Z,23.60
2018-09-11T06:51:53.130Z,23.40
2018-09-11T06:52:53.240Z,23.70
2018-09-11T06:53:53.128Z,24.50
2018-09-11T06:54:53.276Z,25.70
2018-09-11T06:55:53.158Z,28.00
2018-09-11T06:56:53.165Z,26.00
2018-09-11T06:57:53.331Z,26.40
2018-09-11T06:58:53.252Z,28.80
2018-09-11T06:59:53.224Z,28.80
2018-09-11T07:00:53.227Z,29.10
2018-09-11T07:01:53.280Z,30.60
2018-09-11T07:02:53.460Z,31.90
2018-09-11T07:03:53.304Z,32.70
2018-09-11T07:04:53.271Z,31.70
2018-09-11T07:05:53.295Z,31.80
2018-09-11T07:06:53.295Z,32.60
2018-09-11T07:07:53.466Z,34.10
2018-09-11T07:08:53.321Z,34.00
2018-09-11T07:09:53.317Z,33.60
2018-09-11T07:10:53.344Z,35.00
2018-09-11T07:11:53.349Z,34.30
2018-09-11T07:12:53.570Z,35.20
2018-09-11T07:13:53.444Z,36.70
2018-09-11T07:14:53.382Z,33.20
2018-09-11T07:15:53.462Z,32.80
2018-09-11T07:16:53.404Z,28.70
2018-09-11T07:17:53.539Z,27.10
2018-09-11T07:18:53.450Z,29.30
2018-09-11T07:19:53.495Z,24.00
2018-09-11T07:20:53.478Z,25.60
2018-09-11T07:21:53.485Z,23.30
2018-09-11T07:22:53.695Z,21.00
2018-09-11T07:23:53.564Z,19.60
2018-09-11T07:24:53.561Z,18.90
2018-09-11T07:25:53.559Z,19.30
2018-09-11T07:26:53.554Z,18.00
2018-09-11T07:27:53.563Z,18.10
2018-09-11T07:28:53.677Z,18.20
2018-09-11T07:29:53.561Z,15.80
2018-09-11T07:30:53.571Z,17.00
2018-09-11T07:31:53.592Z,15.50
2018-09-11T07:32:53.598Z,15.40
2018-09-11T07:33:53.707Z,17.30
2018-09-11T07:34:53.636Z,15.50
2018-09-11T07:35:53.640Z,15.90
2018-09-11T07:36:53.655Z,17.20
2018-09-11T07:37:53.739Z,16.00
2018-09-11T07:38:53.872Z,18.10
2018-09-11T07:39:53.704Z,17.60
2018-09-11T07:40:53.718Z,16.00
2018-09-11T07:41:53.722Z,15.50
2018-09-11T07:42:53.736Z,16.50
2018-09-11T07:43:53.925Z,16.40
2018-09-11T07:44:53.757Z,17.40
2018-09-11T07:45:53.749Z,17.70
2018-09-11T07:46:53.785Z,17.80
2018-09-11T07:47:53.796Z,22.00
2018-09-11T07:48:53.861Z,18.90
2018-09-11T07:49:53.814Z,20.40
2018-09-11T07:50:53.823Z,18.10
2018-09-11T07:51:54.090Z,19.50
2018-09-11T07:52:53.866Z,18.60
2018-09-11T07:53:53.861Z,19.00
2018-09-11T07:54:53.853Z,21.20
2018-09-11T07:55:53.879Z,22.30
2018-09-11T07:56:53.901Z,20.60
2018-09-11T07:57:54.064Z,20.90
2018-09-11T07:58:53.921Z,21.90
2018-09-11T07:59:53.937Z,21.20
2018-09-11T08:00:53.947Z,22.00
2018-09-11T08:01:53.961Z,24.00
2018-09-11T08:02:54.060Z,22.60
2018-09-11T08:03:53.966Z,23.30
2018-09-11T08:04:53.977Z,28.40
2018-09-11T08:05:53.996Z,21.80
2018-09-11T08:06:54.059Z,22.80
2018-09-11T08:07:54.122Z,23.40
2018-09-11T08:08:54.045Z,25.70
2018-09-11T08:09:54.046Z,24.50
2018-09-11T08:10:54.064Z,23.20
2018-09-11T08:11:54.111Z,23.40
2018-09-11T08:12:54.131Z,24.00
2018-09-11T08:13:54.076Z,24.00
2018-09-11T08:14:54.199Z,26.50
2018-09-11T08:15:54.122Z,26.10
2018-09-11T08:16:54.108Z,24.10
2018-09-11T08:17:54.180Z,21.70
2018-09-11T08:18:54.164Z,25.90
2018-09-11T08:19:54.279Z,25.10
2018-09-11T08:20:54.181Z,21.70
2018-09-11T08:21:54.182Z,24.70
2018-09-11T08:22:54.183Z,22.40
2018-09-11T08:23:54.209Z,23.90
2018-09-11T08:24:54.353Z,24.90
2018-09-11T08:25:54.241Z,25.50
2018-09-11T08:26:54.251Z,26.40
2018-09-11T08:27:54.246Z,25.90
2018-09-11T08:28:54.259Z,26.30
2018-09-11T08:29:54.437Z,24.80
2018-09-11T08:30:54.280Z,27.20
2018-09-11T08:31:54.300Z,24.00
2018-09-11T08:32:54.340Z,27.80
2018-09-11T08:33:54.360Z,24.50
2018-09-11T08:34:54.502Z,27.80
2018-09-11T08:35:54.354Z,25.30
2018-09-11T08:36:54.376Z,26.30
2018-09-11T08:37:54.367Z,21.90
2018-09-11T08:38:54.382Z,26.90
2018-09-11T08:39:54.576Z,25.60
2018-09-11T08:40:54.446Z,28.20
2018-09-11T08:41:54.417Z,27.90
2018-09-11T08:42:54.414Z,25.50
2018-09-11T08:43:54.448Z,30.10
2018-09-11T08:44:54.502Z,24.00
2018-09-11T08:45:54.445Z,26.80
2018-09-11T08:46:54.477Z,23.90
2018-09-11T08:47:54.473Z,27.20
2018-09-11T08:48:54.495Z,29.70
2018-09-11T08:49:54.594Z,29.80
2018-09-11T08:50:54.499Z,26.90
2018-09-11T08:51:54.524Z,31.90
2018-09-11T08:52:54.555Z,24.50
2018-09-11T08:53:54.545Z,28.20
2018-09-11T08:54:54.668Z,24.70
2018-09-11T08:55:54.553Z,28.40
2018-09-11T08:56:54.570Z,31.40
2018-09-11T08:57:54.607Z,32.60
2018-09-11T08:58:54.590Z,35.10
2018-09-11T08:59:54.771Z,37.10
2018-09-11T09:00:54.630Z,36.80
2018-09-11T09:01:54.696Z,39.50
2018-09-11T09:02:54.631Z,38.70
2018-09-11T09:03:54.647Z,46.40
2018-09-11T09:04:54.864Z,39.50
2018-09-11T09:05:54.688Z,38.80
2018-09-11T09:06:54.740Z,41.70
2018-09-11T09:07:54.699Z,40.50
2018-09-11T09:08:54.711Z,39.30
2018-09-11T09:09:54.817Z,37.90
2018-09-11T09:10:54.720Z,34.50
2018-09-11T09:11:54.780Z,32.90
2018-09-11T09:12:54.765Z,38.90
2018-09-11T09:13:54.755Z,32.80
2018-09-11T09:14:54.878Z,35.10
2018-09-11T09:15:54.794Z,34.80
2018-09-11T09:16:54.808Z,34.60
2018-09-11T09:17:54.817Z,27.70
2018-09-11T09:18:54.813Z,30.60
2018-09-11T09:19:54.926Z,30.00
2018-09-11T09:20:54.934Z,29.00
2018-09-11T09:21:54.855Z,32.80
2018-09-11T09:22:54.881Z,32.30
2018-09-11T09:23:54.912Z,31.80
2018-09-11T09:24:55.002Z,27.30
2018-09-11T09:25:54.905Z,30.90
2018-09-11T09:26:54.928Z,28.00
2018-09-11T09:27:54.928Z,30.60
2018-09-11T09:28:54.948Z,27.90
2018-09-11T09:29:55.062Z,28.70
2018-09-11T09:30:54.989Z,24.10
2018-09-11T09:31:54.980Z,25.50
2018-09-11T09:32:54.997Z,28.40
2018-09-11T09:33:55.003Z,25.70
2018-09-11T09:34:55.107Z,24.20
2018-09-11T09:35:55.023Z,23.10
2018-09-11T09:36:55.130Z,23.30
2018-09-11T09:37:55.042Z,25.60
2018-09-11T09:38:55.049Z,24.30
2018-09-11T09:39:55.174Z,22.90
2018-09-11T09:40:55.094Z,20.70
2018-09-11T09:41:55.084Z,19.90
2018-09-11T09:42:55.148Z,23.10
2018-09-11T09:43:55.124Z,20.10
2018-09-11T09:44:55.231Z,19.10
2018-09-11T09:45:55.146Z,18.60
2018-09-11T09:46:55.145Z,20.90
2018-09-11T09:47:55.173Z,19.90
2018-09-11T09:48:55.183Z,18.40
2018-09-11T09:49:55.371Z,22.60
2018-09-11T09:50:55.261Z,22.90
2018-09-11T09:51:55.207Z,21.40
2018-09-11T09:52:55.241Z,18.50
2018-09-11T09:53:55.264Z,23.60
2018-09-11T09:54:55.319Z,18.50
2018-09-11T09:55:55.315Z,20.20
2018-09-11T09:56:55.275Z,18.00
2018-09-11T09:57:55.276Z,20.70
2018-09-11T09:58:55.588Z,19.10
2018-09-11T09:59:55.324Z,18.80
2018-09-11T10:00:55.326Z,19.50
2018-09-11T10:01:55.340Z,21.90
2018-09-11T10:02:55.360Z,22.40
2018-09-11T10:03:55.476Z,17.40
2018-09-11T10:04:55.450Z,17.70
2018-09-11T10:05:55.405Z,21.30
2018-09-11T10:06:55.445Z,20.90
2018-09-11T10:07:55.423Z,20.70
2018-09-11T10:08:55.515Z,20.20
2018-09-11T10:09:55.451Z,19.00
2018-09-11T10:10:55.439Z,19.90
2018-09-11T10:11:55.525Z,17.00
2018-09-11T10:12:55.487Z,17.00
2018-09-11T10:13:55.579Z,17.60
2018-09-11T10:14:55.492Z,18.80
2018-09-11T10:15:55.512Z,16.20
2018-09-11T10:16:55.528Z,18.60
2018-09-11T10:17:55.579Z,14.80
2018-09-11T10:18:55.652Z,16.20
2018-09-11T10:19:55.603Z,15.50
2018-09-11T10:20:55.597Z,15.70
2018-09-11T10:21:55.641Z,16.30
2018-09-11T10:22:55.604Z,15.00
2018-09-11T10:23:55.841Z,14.00
2018-09-11T10:24:55.629Z,14.50
2018-09-11T10:25:55.636Z,16.80
2018-09-11T10:26:55.647Z,13.70
2018-09-11T10:27:55.652Z,14.00
2018-09-11T10:28:55.785Z,12.90
2018-09-11T10:29:55.692Z,13.60
2018-09-11T10:30:55.713Z,12.70
2018-09-11T10:31:55.717Z,16.20
2018-09-11T10:32:55.721Z,15.60
2018-09-11T10:33:55.982Z,13.60
2018-09-11T10:34:55.743Z,17.40
2018-09-11T10:35:55.819Z,13.80
2018-09-11T10:36:55.787Z,12.40
2018-09-11T10:37:55.814Z,15.40
2018-09-11T10:38:55.976Z,13.30
2018-09-11T10:39:55.829Z,16.40
2018-09-11T10:40:55.829Z,13.40
2018-09-11T10:41:55.836Z,15.90
2018-09-11T10:42:55.854Z,12.00
2018-09-11T10:43:56.035Z,12.40
2018-09-11T10:44:55.920Z,13.70
2018-09-11T10:45:55.890Z,11.80
2018-09-11T10:46:55.914Z,11.40
2018-09-11T10:47:55.923Z,12.20
2018-09-11T10:48:56.173Z,15.50
2018-09-11T10:49:55.951Z,11.10
2018-09-11T10:50:55.968Z,11.80
2018-09-11T10:51:56.135Z,9.70
2018-09-11T10:52:56.020Z,14.50
2018-09-11T10:53:56.099Z,10.50
2018-09-11T10:54:56.016Z,12.30
2018-09-11T10:55:56.044Z,9.80
2018-09-11T10:56:56.073Z,11.40
2018-09-11T10:57:56.186Z,12.30
2018-09-11T10:58:56.104Z,12.80
2018-09-11T10:59:56.108Z,14.10
2018-09-11T11:00:56.141Z,13.30
2018-09-11T11:01:56.132Z,13.20
2018-09-11T11:02:56.208Z,12.70
2018-09-11T11:03:56.304Z,15.00
2018-09-11T11:04:56.191Z,13.10
2018-09-11T11:05:56.208Z,14.50
2018-09-11T11:06:56.202Z,12.70
2018-09-11T11:07:56.223Z,13.40
2018-09-11T11:08:56.290Z,10.80
2018-09-11T11:09:56.414Z,12.30
2018-09-11T11:10:56.259Z,12.40
2018-09-11T11:11:56.300Z,13.50
2018-09-11T11:12:56.325Z,10.50
2018-09-11T11:13:56.338Z,11.30
2018-09-11T11:14:56.450Z,11.60
2018-09-11T11:15:56.348Z,9.40
2018-09-11T11:16:56.429Z,10.50
2018-09-11T11:17:56.439Z,10.10
2018-09-11T11:18:56.407Z,11.70
2018-09-11T11:19:56.516Z,12.30
2018-09-11T11:20:56.438Z,10.00
2018-09-11T11:21:56.444Z,9.70
2018-09-11T11:22:56.495Z,9.80
2018-09-11T11:23:56.476Z,9.40
2018-09-11T11:24:56.508Z,10.70
2018-09-11T11:25:56.664Z,9.00
2018-09-11T11:26:56.592Z,13.30
2018-09-11T11:27:56.551Z,10.60
2018-09-11T11:28:56.580Z,12.40
2018-09-11T11:29:56.600Z,10.00
2018-09-11T11:30:56.738Z,10.60
2018-09-11T11:31:56.599Z,9.70
2018-09-11T11:32:56.635Z,11.50
2018-09-11T11:33:56.644Z,10.40
2018-09-11T11:34:56.665Z,11.00
2018-09-11T11:35:56.834Z,13.60
2018-09-11T11:36:56.917Z,10.80
2018-09-11T11:37:56.715Z,12.40
2018-09-11T11:38:56.749Z,11.50
2018-09-11T11:39:56.743Z,11.60
2018-09-11T11:40:56.801Z,12.60
2018-09-11T11:41:56.773Z,10.30
2018-09-11T11:43:56.915Z,10.60
2018-09-11T11:44:56.836Z,12.40
2018-09-11T11:45:56.861Z,11.00
2018-09-11T11:46:56.912Z,9.90
2018-09-11T11:47:56.883Z,10.90
2018-09-11T11:48:56.979Z,13.30
2018-09-11T11:49:56.913Z,10.00
2018-09-11T11:50:56.932Z,16.40
2018-09-11T11:51:56.944Z,10.60
2018-09-11T11:52:56.968Z,11.20
2018-09-11T11:53:57.083Z,11.60
2018-09-11T11:54:57.019Z,13.20
2018-09-11T11:55:57.022Z,14.20
2018-09-11T11:56:57.145Z,13.30
2018-09-11T11:57:57.040Z,13.70
2018-09-11T11:58:57.175Z,13.80
2018-09-11T11:59:57.075Z,14.20
2018-09-11T12:00:57.094Z,14.10
2018-09-11T12:01:57.147Z,14.70
2018-09-11T12:02:57.143Z,17.50
2018-09-11T12:03:57.359Z,14.40
2018-09-11T12:04:57.177Z,15.50
2018-09-11T12:05:57.226Z,15.00
2018-09-11T12:06:57.217Z,14.10
2018-09-11T12:07:57.316Z,15.20
2018-09-11T12:08:57.336Z,17.70
2018-09-11T12:09:57.269Z,17.20
2018-09-11T12:10:57.280Z,16.00
2018-09-11T12:11:57.295Z,16.60
2018-09-11T12:12:57.290Z,16.90
2018-09-11T12:13:57.363Z,17.80
2018-09-11T12:14:57.345Z,17.80
2018-09-11T12:15:57.433Z,16.60
2018-09-11T12:16:57.538Z,17.80
2018-09-11T12:17:57.380Z,17.90
2018-09-11T12:18:57.407Z,17.50
2018-09-11T12:19:57.433Z,17.10
2018-09-11T12:20:57.485Z,17.10
2018-09-11T12:21:57.571Z,16.20
2018-09-11T12:22:57.590Z,17.20
2018-09-11T12:23:57.554Z,15.80
2018-09-11T12:24:57.519Z,16.30
2018-09-11T12:25:57.527Z,17.40
2018-09-11T12:26:57.547Z,15.20
2018-09-11T12:27:57.570Z,17.10
2018-09-11T12:28:57.749Z,17.30
2018-09-11T12:29:57.600Z,17.80
2018-09-11T12:30:57.670Z,17.50
2018-09-11T12:31:57.638Z,18.70
2018-09-11T12:32:57.678Z,18.60
2018-09-11T12:33:57.881Z,20.10
2018-09-11T12:34:57.720Z,16.60
2018-09-11T12:35:57.729Z,16.60
2018-09-11T12:36:57.753Z,17.00
2018-09-11T12:37:57.736Z,17.20
2018-09-11T12:39:01.722Z,17.30
2018-09-11T12:39:57.821Z,17.30
2018-09-11T12:40:57.808Z,17.00
2018-09-11T12:41:57.829Z,17.10
2018-09-11T12:42:57.842Z,16.50
2018-09-11T12:43:58.000Z,17.40
2018-09-11T12:44:57.871Z,17.30
2018-09-11T12:45:57.949Z,15.20
2018-09-11T12:46:58.129Z,16.50
2018-09-11T12:47:58.652Z,16.40
2018-09-11T12:48:57.934Z,15.00
2018-09-11T12:49:57.977Z,14.40
2018-09-11T12:50:57.988Z,15.90
2018-09-11T12:51:57.984Z,14.20
2018-09-11T12:52:58.102Z,14.40
2018-09-11T12:53:58.048Z,14.40
2018-09-11T12:54:58.040Z,14.00
2018-09-11T12:55:58.081Z,14.90
2018-09-11T12:56:58.077Z,14.80
2018-09-11T12:57:58.294Z,16.50
2018-09-11T12:58:58.135Z,14.90